Time;durP1;ratioP1;P1;durP2;ratioP2;P2;SDS_P1;SDS_P2;PMS_P1;PMS_P2;Temp;Humidity;BMP_temperature;BMP_pressure;BME280_temperature;BME280_humidity;BME280_pressure;Samples;Min_cycle;Max_cycle;Signal;HPM_P1;HPM_P2
2023/08/20 00:02:05;;;;;;;8.95;8.05;;;;;;;22.47;100.00;100929.63;5024987;28;20032;-62
2023/08/20 00:04:33;;;;;;;9.60;8.60;;;;;;;22.48;100.00;100933.91;5020176;28;20534;-62
2023/08/20 00:06:59;;;;;;;9.02;7.75;;;;;;;22.47;100.00;100924.31;5020280;28;20126;-62
2023/08/20 00:09:27;;;;;;;8.98;7.60;;;;;;;22.44;100.00;100926.56;5026164;28;20592;-62
2023/08/20 00:11:52;;;;;;;12.60;8.35;;;;;;;22.44;100.00;100929.22;5021040;28;20029;-62
2023/08/20 00:14:17;;;;;;;8.65;7.78;;;;;;;22.46;100.00;100927.19;5022156;28;20044;-62
2023/08/20 00:16:43;;;;;;;9.93;8.25;;;;;;;22.48;100.00;100920.63;5020639;28;20160;-62
2023/08/20 00:19:10;;;;;;;10.45;7.75;;;;;;;22.46;100.00;100925.34;5020131;28;20446;-62
2023/08/20 00:21:42;;;;;;;8.80;8.00;;;;;;;22.41;100.00;100932.31;5020151;28;20034;-62
2023/08/20 00:24:08;;;;;;;9.68;7.88;;;;;;;22.37;100.00;100931.09;5032251;28;20404;-62
2023/08/20 00:26:34;;;;;;;11.30;9.35;;;;;;;22.35;100.00;100925.19;5035553;28;20037;-62
2023/08/20 00:28:59;;;;;;;10.50;8.48;;;;;;;22.42;100.00;100928.63;5021582;28;20091;-62
2023/08/20 00:31:25;;;;;;;10.00;8.52;;;;;;;22.43;100.00;100919.63;5025186;28;20080;-62
2023/08/20 00:33:50;;;;;;;10.05;8.63;;;;;;;22.40;100.00;100928.03;5024439;28;20041;-62
2023/08/20 00:36:15;;;;;;;9.15;8.25;;;;;;;22.35;100.00;100920.69;5020580;28;20068;-61
2023/08/20 00:38:41;;;;;;;9.70;8.35;;;;;;;22.35;100.00;100922.53;5024315;28;20021;-62
2023/08/20 00:41:06;;;;;;;10.30;8.18;;;;;;;22.35;100.00;100922.53;5021889;28;20403;-62
2023/08/20 00:43:32;;;;;;;8.63;7.68;;;;;;;22.31;100.00;100916.00;5045757;28;20033;-62
2023/08/20 00:45:59;;;;;;;9.70;8.70;;;;;;;22.29;100.00;100908.25;5040305;28;20022;-62
2023/08/20 00:48:25;;;;;;;9.40;8.38;;;;;;;22.31;100.00;100908.03;5024232;28;20037;-62
2023/08/20 00:50:51;;;;;;;9.25;8.18;;;;;;;22.27;100.00;100906.81;5019218;28;20500;-61
2023/08/20 00:53:16;;;;;;;11.88;8.30;;;;;;;22.22;100.00;100909.28;5019758;28;20040;-62
2023/08/20 00:55:45;;;;;;;8.88;7.88;;;;;;;22.16;100.00;100918.94;5036030;28;20035;-62
2023/08/20 00:58:11;;;;;;;9.30;8.02;;;;;;;22.13;100.00;100922.00;5020543;28;20044;-62
2023/08/20 01:00:37;;;;;;;10.25;8.60;;;;;;;22.12;100.00;100921.19;5023295;28;20041;-62
2023/08/20 01:03:02;;;;;;;9.70;8.65;;;;;;;22.13;100.00;100922.00;5016419;28;20032;-62
2023/08/20 01:05:33;;;;;;;9.55;8.65;;;;;;;22.11;100.00;100924.88;5020514;28;20128;-62
2023/08/20 01:08:32;;;;;;;10.60;8.30;;;;;;;22.07;100.00;100928.97;5016991;28;20034;-62
2023/08/20 01:11:06;;;;;;;9.80;8.82;;;;;;;22.05;100.00;100930.19;5024883;28;20044;-62
2023/08/20 01:13:32;;;;;;;10.02;8.75;;;;;;;22.01;100.00;100929.78;5018224;28;20033;-62
2023/08/20 01:15:57;;;;;;;9.82;8.82;;;;;;;22.17;100.00;100928.53;5017112;28;20040;-62
2023/08/20 01:18:24;;;;;;;9.30;8.40;;;;;;;22.32;100.00;100937.03;5019553;28;20033;-62
2023/08/20 01:21:04;;;;;;;9.65;8.75;;;;;;;22.34;100.00;100944.78;5017146;28;20123;-62
2023/08/20 01:24:02;;;;;;;9.93;8.73;;;;;;;22.32;100.00;100936.22;5019584;28;20045;-62
2023/08/20 01:27:10;;;;;;;10.10;8.98;;;;;;;22.24;100.00;100933.78;5032199;28;20458;-62
2023/08/20 01:29:36;;;;;;;10.23;8.65;;;;;;;22.19;100.00;100942.41;5025338;28;20037;-61
2023/08/20 01:32:04;;;;;;;10.68;9.05;;;;;;;22.15;100.00;100935.88;5019699;28;20680;-61
2023/08/20 01:34:29;;;;;;;8.52;7.72;;;;;;;22.22;100.00;100941.97;5017151;28;20072;-62
2023/08/20 01:36:55;;;;;;;10.60;9.00;;;;;;;22.24;100.00;100944.41;5021026;28;20140;-62
2023/08/20 01:39:21;;;;;;;9.23;8.43;;;;;;;22.22;100.00;100943.78;5020635;28;20045;-62
2023/08/20 01:41:46;;;;;;;9.93;8.93;;;;;;;22.15;100.00;100944.66;5023414;28;20381;-61
2023/08/20 01:44:12;;;;;;;10.93;9.27;;;;;;;22.12;100.00;100942.44;5040198;28;20029;-61
2023/08/20 01:46:37;;;;;;;12.35;8.40;;;;;;;22.16;100.00;100942.81;5020660;28;20029;-62
2023/08/20 01:49:03;;;;;;;11.80;8.75;;;;;;;22.23;100.00;100938.28;5024788;28;20390;-61
2023/08/20 01:51:28;;;;;;;9.38;8.48;;;;;;;22.36;100.00;100943.56;5021544;28;20037;-61
2023/08/20 01:53:54;;;;;;;10.95;8.32;;;;;;;22.44;100.00;100940.66;5019095;28;20029;-62
2023/08/20 01:56:19;;;;;;;14.02;9.27;;;;;;;22.47;100.00;100934.94;5026439;28;20025;-62
2023/08/20 01:58:45;;;;;;;9.45;8.20;;;;;;;22.39;100.00;100947.63;5027637;28;20037;-61
2023/08/20 02:01:10;;;;;;;9.02;7.82;;;;;;;22.42;100.00;100931.28;5019038;28;20496;-62
2023/08/20 02:03:37;;;;;;;10.70;8.95;;;;;;;22.49;100.00;100938.19;5025841;28;20063;-61
2023/08/20 02:06:03;;;;;;;9.90;8.90;;;;;;;22.51;100.00;100936.16;5021472;28;20041;-62
2023/08/20 02:08:28;;;;;;;10.35;8.68;;;;;;;22.67;100.00;100928.72;5019019;28;20033;-62
2023/08/20 02:11:04;;;;;;;10.00;7.72;;;;;;;22.82;100.00;100927.41;5017783;28;20041;-62
2023/08/20 02:13:30;;;;;;;8.70;7.80;;;;;;;22.93;100.00;100923.25;5023595;28;20041;-62
2023/08/20 02:16:04;;;;;;;9.88;8.13;;;;;;;22.94;100.00;100924.09;5019602;28;20033;-62
2023/08/20 02:18:30;;;;;;;8.73;7.65;;;;;;;22.78;100.00;100928.88;5017158;28;20366;-61
2023/08/20 02:20:56;;;;;;;9.15;7.88;;;;;;;22.75;100.00;100926.59;5017616;28;20037;-62
2023/08/20 02:23:22;;;;;;;11.10;7.93;;;;;;;22.75;100.00;100918.63;5017551;28;20110;-62
2023/08/20 02:25:47;;;;;;;8.88;7.88;;;;;;;22.74;100.00;100922.31;5027606;28;20025;-62
2023/08/20 02:28:13;;;;;;;9.23;8.23;;;;;;;22.63;100.00;100917.72;5029566;28;20068;-62
2023/08/20 02:30:42;;;;;;;11.07;7.50;;;;;;;22.56;100.00;100910.81;5021086;28;20037;-62
2023/08/20 02:33:08;;;;;;;10.20;8.48;;;;;;;22.58;100.00;100920.19;5018130;28;20602;-61
2023/08/20 02:35:33;;;;;;;9.32;7.78;;;;;;;22.56;100.00;100922.22;5019155;28;20058;-61
2023/08/20 02:37:59;;;;;;;9.02;8.13;;;;;;;22.48;100.00;100917.97;5017112;28;20450;-61
2023/08/20 02:40:24;;;;;;;8.88;7.95;;;;;;;22.52;100.00;100924.50;5020458;28;20037;-61
2023/08/20 02:42:49;;;;;;;8.85;8.05;;;;;;;22.64;100.00;100922.00;5028810;28;20041;-61
2023/08/20 02:45:15;;;;;;;10.52;8.05;;;;;;;22.77;100.00;100921.91;5037887;28;20069;-61
2023/08/20 02:47:40;;;;;;;8.25;7.45;;;;;;;22.80;99.81;100918.84;5021991;28;20033;-62
2023/08/20 02:50:06;;;;;;;11.52;8.05;;;;;;;22.82;100.00;100919.44;5021523;28;20040;-61
2023/08/20 02:52:31;;;;;;;9.15;6.78;;;;;;;22.69;100.00;100921.31;5017930;28;20095;-61
2023/08/20 02:54:57;;;;;;;10.30;9.23;;;;;;;22.67;100.00;100926.06;5027353;28;20064;-61
2023/08/20 02:57:22;;;;;;;9.30;8.15;;;;;;;22.61;100.00;100927.72;5020476;28;20496;-62
2023/08/20 02:59:47;;;;;;;8.75;7.32;;;;;;;22.63;100.00;100932.81;5016748;28;20033;-61
2023/08/20 03:02:13;;;;;;;9.07;7.65;;;;;;;22.61;100.00;100925.06;5015977;28;20042;-61
2023/08/20 03:04:38;;;;;;;8.00;7.22;;;;;;;22.64;100.00;100923.84;5017419;28;20082;-61
2023/08/20 03:07:04;;;;;;;9.15;7.43;;;;;;;22.59;100.00;100924.47;5017892;28;20040;-62
2023/08/20 03:09:30;;;;;;;8.73;7.75;;;;;;;22.55;100.00;100922.44;5016510;28;20120;-61
2023/08/20 03:11:55;;;;;;;10.18;7.90;;;;;;;22.61;100.00;100927.72;5020141;28;20083;-61
2023/08/20 03:14:21;;;;;;;8.65;7.90;;;;;;;22.77;99.74;100924.56;5023290;28;20128;-61
2023/08/20 03:16:46;;;;;;;8.63;7.75;;;;;;;22.89;98.39;100921.25;5020080;28;20033;-61
2023/08/20 03:19:15;;;;;;;8.77;7.18;;;;;;;22.99;97.14;100922.41;5021287;28;20041;-62
2023/08/20 03:21:40;;;;;;;8.55;7.45;;;;;;;23.02;96.56;100926.50;5020358;28;20041;-61
2023/08/20 03:24:07;;;;;;;9.40;7.43;;;;;;;23.05;96.35;100921.56;5020150;28;20040;-61
2023/08/20 03:26:32;;;;;;;12.18;8.30;;;;;;;23.06;96.24;100922.38;5021506;28;20472;-62
2023/08/20 03:28:58;;;;;;;11.20;8.00;;;;;;;23.05;96.73;100920.75;5024555;28;20151;-62
2023/08/20 03:31:24;;;;;;;8.77;7.88;;;;;;;22.97;96.79;100928.97;5019072;28;20508;-62
2023/08/20 03:33:50;;;;;;;8.40;7.55;;;;;;;22.90;97.46;100926.34;5019806;28;20174;-61
2023/08/20 03:36:15;;;;;;;9.43;7.18;;;;;;;22.88;97.65;100925.75;5019667;28;20052;-61
2023/08/20 03:38:41;;;;;;;8.82;7.63;;;;;;;22.88;97.88;100928.41;5021845;28;20477;-62
2023/08/20 03:41:06;;;;;;;10.10;8.20;;;;;;;22.85;98.13;100936.81;5022722;28;20045;-61
2023/08/20 03:43:32;;;;;;;8.57;7.55;;;;;;;22.76;99.05;100932.72;5028736;28;20091;-61
2023/08/20 03:45:57;;;;;;;8.95;8.05;;;;;;;22.70;99.86;100934.41;5023246;28;20373;-62
2023/08/20 03:48:23;;;;;;;8.00;7.25;;;;;;;22.58;100.00;100932.66;5020374;28;20087;-61
2023/08/20 03:50:48;;;;;;;10.63;8.10;;;;;;;22.47;100.00;100940.25;5022245;28;20041;-61
2023/08/20 03:53:14;;;;;;;7.20;6.60;;;;;;;22.36;100.00;100934.78;5025645;28;20131;-62
2023/08/20 03:55:39;;;;;;;9.55;8.65;;;;;;;22.29;100.00;100939.28;5021256;28;20037;-62
2023/08/20 03:58:04;;;;;;;8.95;7.35;;;;;;;22.41;100.00;100937.63;5019216;28;20033;-61
2023/08/20 04:00:30;;;;;;;9.70;7.50;;;;;;;22.51;100.00;100936.16;5023837;28;20041;-62
2023/08/20 04:02:55;;;;;;;14.18;8.65;;;;;;;22.48;100.00;100935.75;5020515;28;20037;-61
2023/08/20 04:05:21;;;;;;;9.27;8.18;;;;;;;22.43;100.00;100932.91;5019457;28;20095;-61
2023/08/20 04:07:46;;;;;;;8.75;7.80;;;;;;;22.38;100.00;100922.91;5017874;28;20041;-61
2023/08/20 04:10:11;;;;;;;8.45;7.53;;;;;;;22.31;100.00;100929.28;5022019;28;20444;-61
2023/08/20 04:12:37;;;;;;;9.45;7.53;;;;;;;22.27;100.00;100928.88;5020751;28;20487;-62
2023/08/20 04:15:03;;;;;;;8.20;7.10;;;;;;;22.29;100.00;100923.38;5022340;28;20048;-61
2023/08/20 04:17:28;;;;;;;9.60;7.30;;;;;;;22.27;100.00;100930.72;5019333;28;20045;-62
2023/08/20 04:19:53;;;;;;;9.57;7.53;;;;;;;22.26;100.00;100929.09;5020794;28;20041;-60
2023/08/20 04:22:19;;;;;;;9.75;7.95;;;;;;;22.22;100.00;100930.53;5019771;28;20056;-61
2023/08/20 04:24:44;;;;;;;10.27;7.70;;;;;;;22.12;100.00;100926.50;5020647;28;20033;-62
2023/08/20 04:27:10;;;;;;;9.80;8.25;;;;;;;22.03;100.00;100925.09;5021177;28;20108;-62
2023/08/20 04:29:35;;;;;;;9.45;7.72;;;;;;;21.95;100.00;100927.94;5037636;28;20060;-61
2023/08/20 04:32:01;;;;;;;9.02;7.57;;;;;;;21.90;100.00;100925.09;5023590;28;20041;-61
2023/08/20 04:34:26;;;;;;;9.00;8.20;;;;;;;21.90;100.00;100927.75;5019685;28;20037;-60
2023/08/20 04:36:52;;;;;;;10.55;7.85;;;;;;;21.98;100.00;100929.38;5018787;28;20056;-60
2023/08/20 04:39:18;;;;;;;9.20;8.00;;;;;;;22.05;100.00;100930.19;5020779;28;20091;-60
2023/08/20 04:41:43;;;;;;;8.38;7.35;;;;;;;22.02;100.00;100936.72;5021572;28;20493;-60
2023/08/20 04:44:09;;;;;;;11.57;7.95;;;;;;;22.01;100.00;100929.78;5033278;28;20029;-62
2023/08/20 04:46:35;;;;;;;7.85;7.15;;;;;;;22.00;100.00;100932.63;5022619;28;20172;-62
2023/08/20 04:49:00;;;;;;;10.75;8.32;;;;;;;22.01;100.00;100931.59;5018721;28;20037;-62
2023/08/20 04:51:25;;;;;;;9.02;7.95;;;;;;;22.00;100.00;100925.47;5040410;28;20040;-62
2023/08/20 04:53:51;;;;;;;9.98;8.27;;;;;;;22.07;100.00;100934.28;5032454;28;20032;-62
2023/08/20 04:56:16;;;;;;;9.50;7.32;;;;;;;22.13;100.00;100943.25;5021908;28;20091;-62
2023/08/20 04:58:42;;;;;;;10.65;7.35;;;;;;;22.22;100.00;100941.16;5028561;28;20048;-62
2023/08/20 05:01:08;;;;;;;8.63;7.80;;;;;;;22.25;100.00;100940.72;5029568;28;20049;-61
2023/08/20 05:03:34;;;;;;;9.85;8.20;;;;;;;22.27;100.00;100938.69;5021027;28;20044;-61
2023/08/20 05:06:00;;;;;;;9.15;7.80;;;;;;;22.31;100.00;100939.88;5018512;28;20040;-61
2023/08/20 05:08:25;;;;;;;10.63;7.70;;;;;;;22.32;100.00;100938.88;5024186;28;20033;-61
2023/08/20 05:10:51;;;;;;;7.45;6.85;;;;;;;22.32;100.00;100939.69;5016131;28;20038;-61
2023/08/20 05:13:17;;;;;;;9.00;7.43;;;;;;;22.31;100.00;100946.00;5022372;28;20037;-61
2023/08/20 05:15:42;;;;;;;8.70;7.72;;;;;;;22.29;100.00;100945.41;5026909;28;20098;-61
2023/08/20 05:18:08;;;;;;;9.38;7.43;;;;;;;22.28;100.00;100956.22;5020114;28;20526;-62
2023/08/20 05:20:33;;;;;;;10.07;7.35;;;;;;;22.41;100.00;100954.34;5018397;28;20472;-61
2023/08/20 05:22:59;;;;;;;14.10;8.10;;;;;;;22.46;100.00;100956.38;5019009;28;20509;-61
2023/08/20 05:25:25;;;;;;;8.55;7.63;;;;;;;22.44;100.00;100958.44;5017602;28;20032;-62
2023/08/20 05:27:50;;;;;;;8.55;7.57;;;;;;;22.44;100.00;100963.75;5019828;28;20037;-61
2023/08/20 05:30:15;;;;;;;10.75;7.57;;;;;;;22.45;100.00;100968.03;5033786;28;20025;-61
2023/08/20 05:32:41;;;;;;;8.23;7.43;;;;;;;22.52;100.00;100968.81;5035189;28;20133;-62
2023/08/20 05:35:07;;;;;;;8.55;7.40;;;;;;;22.61;100.00;100962.25;5018217;28;20056;-62
2023/08/20 05:37:32;;;;;;;8.00;7.20;;;;;;;22.69;100.00;100961.97;5021232;28;20034;-61
2023/08/20 05:39:58;;;;;;;8.30;7.55;;;;;;;22.77;100.00;100961.75;5022503;28;20520;-62
2023/08/20 05:42:23;;;;;;;10.07;6.93;;;;;;;22.79;99.70;100967.69;5019084;28;20076;-61
2023/08/20 05:44:48;;;;;;;9.48;7.65;;;;;;;22.81;99.65;100972.78;5044768;28;20028;-61
2023/08/20 05:47:14;;;;;;;7.95;7.25;;;;;;;22.83;99.27;100971.56;5029835;28;20503;-61
2023/08/20 05:49:39;;;;;;;8.38;7.40;;;;;;;22.83;99.21;100974.22;5022256;28;20033;-61
2023/08/20 05:52:05;;;;;;;8.70;7.28;;;;;;;22.84;99.04;100972.38;5019944;28;20168;-61
2023/08/20 05:54:30;;;;;;;8.30;7.43;;;;;;;22.86;99.13;100977.47;5025639;28;20246;-61
2023/08/20 05:56:57;;;;;;;8.32;7.53;;;;;;;22.96;98.53;100978.63;5019092;28;20033;-61
2023/08/20 05:59:23;;;;;;;8.38;7.55;;;;;;;23.05;97.88;100976.53;5027550;28;20089;-61
2023/08/20 06:01:48;;;;;;;8.60;7.65;;;;;;;23.11;97.25;100981.00;5022873;28;20029;-60
2023/08/20 06:04:14;;;;;;;8.40;7.60;;;;;;;23.12;97.48;100979.97;5024449;28;20037;-61
2023/08/20 06:06:40;;;;;;;9.45;7.25;;;;;;;23.23;97.14;100984.59;5021445;28;20095;-61
2023/08/20 06:09:05;;;;;;;7.78;6.78;;;;;;;23.28;96.73;100990.06;5016619;28;20052;-60
2023/08/20 06:11:31;;;;;;;7.95;6.80;;;;;;;23.30;96.35;100996.00;5018804;28;20040;-61
2023/08/20 06:13:56;;;;;;;8.07;7.28;;;;;;;23.36;96.39;100996.97;5019506;28;20166;-60
2023/08/20 06:16:22;;;;;;;7.65;6.82;;;;;;;23.42;96.24;100996.94;5019802;28;20572;-61
2023/08/20 06:18:47;;;;;;;10.32;7.10;;;;;;;23.49;95.49;100996.88;5021855;28;20032;-61
2023/08/20 06:21:13;;;;;;;8.40;7.60;;;;;;;23.56;95.65;101002.19;5019787;28;20075;-61
2023/08/20 06:23:38;;;;;;;9.75;7.53;;;;;;;23.65;94.99;101000.84;5021003;28;20033;-61
2023/08/20 06:26:04;;;;;;;8.85;7.55;;;;;;;23.68;94.67;101008.41;5016623;28;20033;-61
2023/08/20 06:28:30;;;;;;;9.30;7.53;;;;;;;23.75;93.81;101004.66;5020758;28;20511;-61
2023/08/20 06:30:56;;;;;;;7.88;6.75;;;;;;;23.85;93.56;101004.19;5030635;28;20065;-61
2023/08/20 06:33:21;;;;;;;8.07;7.30;;;;;;;23.93;93.69;101003.09;5022861;28;20111;-59
2023/08/20 06:35:46;;;;;;;8.27;7.47;;;;;;;24.00;92.40;101003.84;5023522;28;20541;-60
2023/08/20 06:38:12;;;;;;;7.75;7.00;;;;;;;24.07;92.61;101012.56;5051491;28;20025;-59
2023/08/20 06:40:37;;;;;;;7.75;7.03;;;;;;;24.19;92.16;101007.31;5035385;28;20075;-59
2023/08/20 06:43:03;;;;;;;7.78;6.97;;;;;;;24.32;91.76;101001.88;5018016;28;20095;-59
2023/08/20 06:45:29;;;;;;;10.45;6.80;;;;;;;24.45;90.99;101005.22;5042407;28;20369;-60
2023/08/20 06:47:54;;;;;;;7.55;6.85;;;;;;;24.55;90.26;101004.69;5024483;28;20074;-62
2023/08/20 06:50:19;;;;;;;7.88;7.18;;;;;;;24.67;89.65;101002.06;5032479;28;20029;-62
2023/08/20 06:52:45;;;;;;;8.50;7.22;;;;;;;24.76;89.37;101014.88;5034513;28;20510;-62
2023/08/20 06:55:10;;;;;;;8.10;6.90;;;;;;;24.87;88.54;101004.50;5028227;28;20094;-62
2023/08/20 06:57:36;;;;;;;6.90;6.18;;;;;;;24.89;88.42;101002.41;5021683;28;20394;-62
2023/08/20 07:00:04;;;;;;;7.22;6.47;;;;;;;24.97;88.09;101007.47;5031696;28;20033;-63
2023/08/20 07:02:29;;;;;;;7.18;6.57;;;;;;;25.07;87.18;101005.03;5024966;28;20444;-63
2023/08/20 07:04:55;;;;;;;7.15;6.10;;;;;;;25.07;86.75;101013.03;5035583;28;20064;-62
2023/08/20 07:07:20;;;;;;;7.22;6.45;;;;;;;25.12;87.00;101016.66;5055470;28;20170;-63
2023/08/20 07:09:45;;;;;;;7.97;6.95;;;;;;;25.24;86.22;101006.03;5061982;28;20025;-62
2023/08/20 07:12:11;;;;;;;7.28;6.57;;;;;;;25.32;85.98;101008.38;5049719;28;20029;-62
2023/08/20 07:14:36;;;;;;;7.50;6.55;;;;;;;25.33;85.92;101006.53;5051777;28;20040;-62
2023/08/20 07:17:02;;;;;;;11.23;6.68;;;;;;;25.51;84.97;101008.31;5056610;28;20498;-62
2023/08/20 07:19:28;;;;;;;6.85;6.25;;;;;;;25.65;84.19;101009.72;5052099;28;20114;-62
2023/08/20 07:21:54;;;;;;;7.78;6.97;;;;;;;25.62;84.41;101012.81;5052992;28;20496;-62
2023/08/20 07:24:25;;;;;;;7.40;6.63;;;;;;;25.73;84.66;101014.72;5053238;28;20052;-61
2023/08/20 07:26:51;;;;;;;7.25;6.55;;;;;;;25.85;83.35;101022.75;5056195;28;20389;-62
2023/08/20 07:29:16;;;;;;;7.32;6.72;;;;;;;25.89;83.13;101008.72;5045022;28;20047;-61
2023/08/20 07:31:41;;;;;;;6.75;6.10;;;;;;;26.04;80.87;101016.22;5055450;28;20456;-62
2023/08/20 07:34:07;;;;;;;6.88;6.28;;;;;;;26.12;81.51;101008.69;5054998;28;20049;-61
2023/08/20 07:36:32;;;;;;;8.32;6.80;;;;;;;26.26;81.05;101000.41;5053207;28;20052;-61
2023/08/20 07:38:59;;;;;;;7.75;6.93;;;;;;;26.37;80.55;101010.31;5052617;28;20433;-62
2023/08/20 07:41:24;;;;;;;6.78;6.25;;;;;;;26.35;80.72;101007.88;5053364;28;20036;-61
2023/08/20 07:43:50;;;;;;;7.10;6.40;;;;;;;26.43;80.94;101009.38;5052585;28;20143;-61
2023/08/20 07:46:15;;;;;;;7.75;7.00;;;;;;;26.57;80.72;101008.03;5053368;28;20495;-61
2023/08/20 07:48:41;;;;;;;7.15;6.30;;;;;;;26.66;79.60;101003.94;5051247;28;20068;-62
2023/08/20 07:51:07;;;;;;;9.95;6.60;;;;;;;26.70;79.44;101007.75;5052633;28;20122;-62
2023/08/20 07:53:33;;;;;;;7.07;6.47;;;;;;;26.77;79.63;101004.94;5050315;28;20033;-62
2023/08/20 07:56:00;;;;;;;8.25;6.10;;;;;;;26.86;78.74;101002.72;5052407;28;20127;-61
2023/08/20 07:58:25;;;;;;;8.63;6.70;;;;;;;26.99;77.67;101007.78;5052626;28;20029;-62
2023/08/20 08:00:51;;;;;;;8.15;6.40;;;;;;;27.03;77.98;101014.28;5051915;28;20090;-62
2023/08/20 08:03:17;;;;;;;7.03;6.35;;;;;;;27.19;76.71;101018.84;5053717;28;20037;-61
2023/08/20 08:05:49;;;;;;;7.70;6.20;;;;;;;27.32;76.17;101018.56;5052760;28;20495;-62
2023/08/20 08:08:18;;;;;;;7.90;7.10;;;;;;;27.38;76.13;101017.59;5045174;28;20091;-62
2023/08/20 08:10:45;;;;;;;7.25;6.28;;;;;;;27.55;76.70;101019.44;5050750;28;20033;-62
2023/08/20 08:13:15;;;;;;;7.72;6.97;;;;;;;27.63;75.63;101013.72;5055921;28;20037;-62
2023/08/20 08:15:41;;;;;;;6.65;6.00;;;;;;;27.66;76.28;101007.88;5052669;28;20098;-61
2023/08/20 08:18:07;;;;;;;7.55;6.85;;;;;;;27.76;75.88;101013.38;5052953;28;20044;-62
2023/08/20 08:20:34;;;;;;;7.45;6.75;;;;;;;27.79;74.83;100999.50;5052636;28;20025;-62
2023/08/20 08:23:00;;;;;;;7.93;6.97;;;;;;;27.87;75.27;101009.00;5051895;28;20044;-62
2023/08/20 08:25:26;;;;;;;6.65;6.03;;;;;;;28.04;74.67;100999.84;5052561;28;20025;-62
2023/08/20 08:27:51;;;;;;;10.20;6.80;;;;;;;28.18;74.15;101004.88;5054407;28;20028;-61
2023/08/20 08:30:17;;;;;;;8.10;6.53;;;;;;;28.25;73.89;101009.00;5052217;28;20025;-62
2023/08/20 08:32:42;;;;;;;8.98;7.32;;;;;;;28.39;74.39;101004.06;5048475;28;20029;-62
2023/08/20 08:35:08;;;;;;;7.63;6.95;;;;;;;28.41;73.13;101004.63;5051844;28;20055;-62
2023/08/20 08:37:33;;;;;;;7.07;6.38;;;;;;;28.42;73.73;101000.91;5052573;28;20491;-62
2023/08/20 08:39:59;;;;;;;7.68;6.90;;;;;;;28.57;72.56;101001.09;5051790;28;20076;-62
2023/08/20 08:42:25;;;;;;;10.93;7.22;;;;;;;28.55;73.55;101000.53;5052334;28;20431;-62
2023/08/20 08:44:51;;;;;;;7.90;7.10;;;;;;;28.68;73.44;100993.97;5058061;28;20369;-62
2023/08/20 08:47:22;;;;;;;8.35;7.63;;;;;;;28.84;73.53;100998.44;5051909;28;20033;-62
2023/08/20 08:49:48;;;;;;;9.90;6.65;;;;;;;28.89;72.79;101000.38;5051718;28;20391;-63
2023/08/20 08:52:14;;;;;;;7.70;7.03;;;;;;;28.95;73.19;100999.38;5050905;28;20392;-62
2023/08/20 08:54:39;;;;;;;8.80;7.55;;;;;;;28.97;73.36;100994.56;5050820;28;20036;-62
2023/08/20 08:57:05;;;;;;;8.70;7.82;;;;;;;29.06;73.87;100995.72;5050578;28;20032;-63
2023/08/20 08:59:31;;;;;;;8.63;7.78;;;;;;;29.00;72.29;101002.09;5056984;28;20025;-62
2023/08/20 09:01:57;;;;;;;7.45;6.82;;;;;;;28.96;72.57;100992.94;5054607;28;20145;-62
2023/08/20 09:04:23;;;;;;;7.72;6.97;;;;;;;28.88;72.57;100988.03;5051887;28;20481;-62
2023/08/20 09:06:53;;;;;;;7.82;7.13;;;;;;;28.76;72.80;100990.03;5049433;28;20071;-62
2023/08/20 09:09:19;;;;;;;8.82;6.68;;;;;;;28.81;72.46;100998.13;5051549;28;20025;-62
2023/08/20 09:11:46;;;;;;;7.90;7.15;;;;;;;28.66;71.80;100991.53;5051286;28;20017;-62
2023/08/20 09:14:21;;;;;;;7.55;6.75;;;;;;;28.62;71.34;100990.44;5051169;28;20060;-62
2023/08/20 09:16:47;;;;;;;7.53;6.93;;;;;;;28.82;71.63;100997.91;5049877;28;20456;-62
2023/08/20 09:19:12;;;;;;;7.03;6.18;;;;;;;28.90;71.49;100993.94;5056055;28;20115;-63
2023/08/20 09:21:37;;;;;;;7.25;6.53;;;;;;;28.94;70.90;100997.75;5051563;28;20033;-62
2023/08/20 09:24:03;;;;;;;6.85;6.20;;;;;;;28.92;70.42;100991.81;5050950;28;20033;-62
2023/08/20 09:26:29;;;;;;;9.25;7.82;;;;;;;28.94;71.47;100992.38;5051568;28;20047;-62
2023/08/20 09:28:56;;;;;;;9.15;6.70;;;;;;;28.90;71.61;100996.63;5050788;28;20445;-62
2023/08/20 09:31:37;;;;;;;6.70;6.10;;;;;;;28.93;69.60;100990.75;5051355;28;20428;-62
2023/08/20 09:34:03;;;;;;;7.80;6.20;;;;;;;29.06;69.99;100987.69;5051495;28;20342;-62
2023/08/20 09:36:34;;;;;;;7.10;6.47;;;;;;;29.08;70.70;100990.09;5051414;28;20105;-62
2023/08/20 09:39:02;;;;;;;8.18;5.82;;;;;;;28.99;70.36;100984.38;5050862;28;20043;-62
2023/08/20 09:41:29;;;;;;;6.68;6.00;;;;;;;28.99;68.84;100989.75;5051194;28;20037;-62
2023/08/20 09:43:58;;;;;;;7.07;6.43;;;;;;;29.01;68.20;100977.72;5050825;28;20090;-62
2023/08/20 09:46:27;;;;;;;6.22;5.78;;;;;;;28.87;68.47;100984.53;5051358;28;20040;-62
2023/08/20 09:48:56;;;;;;;7.05;6.28;;;;;;;28.86;68.89;100985.59;5049138;28;20437;-62
2023/08/20 09:51:25;;;;;;;7.13;6.47;;;;;;;28.97;67.50;100984.63;5051129;28;20025;-62
2023/08/20 09:54:02;;;;;;;6.45;5.85;;;;;;;29.06;66.32;100975.06;5041853;28;20025;-62
2023/08/20 09:56:29;;;;;;;7.28;6.55;;;;;;;29.02;67.28;100981.19;5051071;28;20376;-62
2023/08/20 09:59:00;;;;;;;5.95;5.35;;;;;;;28.99;67.15;100974.47;5050423;28;20055;-62
2023/08/20 10:01:27;;;;;;;6.38;5.78;;;;;;;29.08;66.24;100974.81;5054299;28;20047;-62
2023/08/20 10:03:53;;;;;;;6.32;5.72;;;;;;;29.14;67.20;100986.41;5042875;28;20039;-63
2023/08/20 10:06:19;;;;;;;6.15;5.40;;;;;;;29.24;66.35;100983.81;5051032;28;20037;-62
2023/08/20 10:08:46;;;;;;;5.93;5.43;;;;;;;29.24;66.86;100979.25;5050745;28;20120;-63
2023/08/20 10:11:12;;;;;;;5.82;5.30;;;;;;;29.25;68.02;100978.19;5042673;28;20053;-63
2023/08/20 10:13:39;;;;;;;6.78;5.47;;;;;;;29.30;67.60;100980.13;5050721;28;20403;-63
2023/08/20 10:16:05;;;;;;;6.10;5.53;;;;;;;29.31;65.54;100979.84;5050391;28;20124;-62
2023/08/20 10:18:30;;;;;;;7.03;6.32;;;;;;;29.35;65.43;100972.88;5039179;28;20112;-62
2023/08/20 10:21:00;;;;;;;6.65;5.97;;;;;;;29.24;65.60;100981.94;5047629;28;20079;-62
2023/08/20 10:23:26;;;;;;;6.55;5.88;;;;;;;29.19;65.67;100973.84;5048526;28;20025;-63
2023/08/20 10:26:06;;;;;;;8.20;6.40;;;;;;;29.01;66.34;100976.91;5049807;28;20444;-62
2023/08/20 10:28:31;;;;;;;8.27;5.80;;;;;;;29.10;66.88;100972.69;5050593;28;20025;-63
2023/08/20 10:31:11;;;;;;;5.88;5.38;;;;;;;29.31;67.07;100968.28;5049784;28;20116;-62
2023/08/20 10:33:53;;;;;;;5.90;5.35;;;;;;;29.30;66.58;100964.00;5050294;28;20459;-62
2023/08/20 10:36:28;;;;;;;7.28;5.70;;;;;;;29.30;67.49;100964.00;5047881;28;20496;-62
2023/08/20 10:38:57;;;;;;;6.28;5.68;;;;;;;29.25;67.17;100964.78;5049865;28;20039;-62
2023/08/20 10:41:27;;;;;;;5.90;4.85;;;;;;;29.24;66.51;100960.47;5049125;28;20428;-62
2023/08/20 10:43:54;;;;;;;6.10;5.60;;;;;;;29.28;66.34;100969.63;5042109;28;20029;-62
2023/08/20 10:46:23;;;;;;;5.28;4.80;;;;;;;29.34;65.37;100971.28;5055039;28;20091;-62
2023/08/20 10:49:08;;;;;;;6.13;5.13;;;;;;;29.50;64.18;100963.38;5049565;28;20041;-62
2023/08/20 10:51:36;;;;;;;5.55;5.15;;;;;;;29.61;65.33;100967.75;5050424;28;20036;-63
2023/08/20 10:54:03;;;;;;;5.90;5.38;;;;;;;29.66;64.71;100959.72;5044112;28;20090;-62
2023/08/20 10:56:43;;;;;;;6.80;4.78;;;;;;;29.63;61.92;100962.94;5050229;28;20481;-62
2023/08/20 10:59:22;;;;;;;5.03;4.63;;;;;;;29.49;62.73;100957.19;5049900;28;20040;-62
2023/08/20 11:01:49;;;;;;;5.10;4.60;;;;;;;29.48;63.67;100963.63;5054238;28;20028;-62
2023/08/20 11:04:17;;;;;;;5.22;4.72;;;;;;;29.61;63.51;100957.81;5050041;28;20041;-62
2023/08/20 11:06:44;;;;;;;5.15;4.75;;;;;;;29.60;62.83;100953.50;5050349;28;20033;-62
2023/08/20 11:09:10;;;;;;;4.85;4.28;;;;;;;29.76;61.50;100956.31;5049729;28;20075;-62
2023/08/20 11:11:38;;;;;;;6.07;4.43;;;;;;;29.89;59.83;100959.31;5049718;28;20119;-62
2023/08/20 11:14:11;;;;;;;4.53;4.13;;;;;;;29.96;58.49;100951.03;5048894;28;20036;-62
2023/08/20 11:16:37;;;;;;;4.45;4.05;;;;;;;30.17;58.06;100946.59;5051073;28;20276;-63
2023/08/20 11:19:08;;;;;;;5.35;3.90;;;;;;;29.97;56.96;100945.38;5050665;28;20396;-63